sensor_id;sensor_type;location;lat;lon;timestamp;P1;durP1;ratioP1;P2;durP2;ratioP2
793;SDS011;380;48.738;9.214;2022-08-21T06:52:38;4.90;;;2.45;;
793;SDS011;380;48.738;9.214;2022-08-21T06:55:05;2.67;;;2.03;;
793;SDS011;380;48.738;9.214;2022-08-21T06:57:32;3.45;;;2.40;;
793;SDS011;380;48.738;9.214;2022-08-21T06:59:58;4.82;;;1.92;;
793;SDS011;380;48.738;9.214;2022-08-21T07:02:24;4.18;;;2.33;;
793;SDS011;380;48.738;9.214;2022-08-21T07:04:50;2.65;;;1.90;;
793;SDS011;380;48.738;9.214;2022-08-21T07:07:16;2.97;;;2.17;;
793;SDS011;380;48.738;9.214;2022-08-21T07:09:42;5.05;;;2.42;;
793;SDS011;380;48.738;9.214;2022-08-21T07:12:08;4.95;;;2.95;;
793;SDS011;380;48.738;9.214;2022-08-21T07:14:35;3.03;;;2.05;;
793;SDS011;380;48.738;9.214;2022-08-21T07:17:01;6.70;;;3.42;;
793;SDS011;380;48.738;9.214;2022-08-21T07:19:27;2.50;;;2.13;;
793;SDS011;380;48.738;9.214;2022-08-21T07:21:54;4.65;;;2.35;;
793;SDS011;380;48.738;9.214;2022-08-21T07:26:49;5.53;;;3.38;;
793;SDS011;380;48.738;9.214;2022-08-21T07:29:15;2.40;;;1.80;;
793;SDS011;380;48.738;9.214;2022-08-21T07:31:42;4.60;;;3.53;;
793;SDS011;380;48.738;9.214;2022-08-21T07:34:08;4.97;;;2.58;;
793;SDS011;380;48.738;9.214;2022-08-21T07:36:34;3.90;;;2.90;;
793;SDS011;380;48.738;9.214;2022-08-21T07:39:00;5.88;;;3.05;;
793;SDS011;380;48.738;9.214;2022-08-21T07:41:27;5.32;;;2.78;;
793;SDS011;380;48.738;9.214;2022-08-21T07:43:53;3.15;;;2.72;;
793;SDS011;380;48.738;9.214;2022-08-21T07:46:19;3.55;;;2.80;;
793;SDS011;380;48.738;9.214;2022-08-21T07:48:46;3.45;;;2.67;;
793;SDS011;380;48.738;9.214;2022-08-21T07:51:12;5.05;;;2.38;;
793;SDS011;380;48.738;9.214;2022-08-21T07:53:39;4.78;;;3.40;;
793;SDS011;380;48.738;9.214;2022-08-21T07:56:05;4.13;;;2.58;;
793;SDS011;380;48.738;9.214;2022-08-21T07:58:31;4.20;;;2.80;;
793;SDS011;380;48.738;9.214;2022-08-21T08:00:57;3.85;;;2.22;;
793;SDS011;380;48.738;9.214;2022-08-21T08:03:23;4.18;;;2.38;;
793;SDS011;380;48.738;9.214;2022-08-21T08:05:50;6.10;;;3.28;;
793;SDS011;380;48.738;9.214;2022-08-21T08:08:16;4.07;;;2.47;;
793;SDS011;380;48.738;9.214;2022-08-21T08:10:42;3.03;;;2.30;;
793;SDS011;380;48.738;9.214;2022-08-21T08:13:08;5.00;;;2.85;;
793;SDS011;380;48.738;9.214;2022-08-21T08:15:35;3.08;;;2.22;;
793;SDS011;380;48.738;9.214;2022-08-21T08:18:01;4.97;;;2.75;;
793;SDS011;380;48.738;9.214;2022-08-21T08:20:28;3.60;;;2.88;;
793;SDS011;380;48.738;9.214;2022-08-21T08:22:54;5.97;;;3.33;;
793;SDS011;380;48.738;9.214;2022-08-21T08:25:21;4.28;;;2.40;;
793;SDS011;380;48.738;9.214;2022-08-21T08:27:47;4.43;;;2.78;;
793;SDS011;380;48.738;9.214;2022-08-21T08:30:14;4.55;;;2.75;;
793;SDS011;380;48.738;9.214;2022-08-21T08:32:41;4.30;;;3.35;;
793;SDS011;380;48.738;9.214;2022-08-21T08:35:07;3.40;;;2.92;;
793;SDS011;380;48.738;9.214;2022-08-21T08:37:34;6.18;;;3.28;;
793;SDS011;380;48.738;9.214;2022-08-21T08:40:02;3.45;;;2.60;;
793;SDS011;380;48.738;9.214;2022-08-21T08:42:29;4.38;;;2.95;;
793;SDS011;380;48.738;9.214;2022-08-21T08:45:00;5.03;;;2.80;;
793;SDS011;380;48.738;9.214;2022-08-21T08:47:27;3.13;;;2.40;;
793;SDS011;380;48.738;9.214;2022-08-21T08:50:01;6.57;;;3.33;;
793;SDS011;380;48.738;9.214;2022-08-21T08:54:58;3.95;;;2.65;;
793;SDS011;380;48.738;9.214;2022-08-21T08:57:26;5.43;;;3.60;;
793;SDS011;380;48.738;9.214;2022-08-21T08:59:56;5.82;;;2.42;;
793;SDS011;380;48.738;9.214;2022-08-21T09:02:23;3.80;;;2.47;;
793;SDS011;380;48.738;9.214;2022-08-21T09:04:52;4.93;;;3.42;;
793;SDS011;380;48.738;9.214;2022-08-21T09:07:21;3.95;;;2.80;;
793;SDS011;380;48.738;9.214;2022-08-21T09:18:17;7.13;;;3.10;;
793;SDS011;380;48.738;9.214;2022-08-21T09:20:53;8.35;;;3.33;;
793;SDS011;380;48.738;9.214;2022-08-21T09:23:27;5.15;;;2.30;;
793;SDS011;380;48.738;9.214;2022-08-21T09:28:31;5.35;;;3.50;;
793;SDS011;380;48.738;9.214;2022-08-21T09:30:58;4.07;;;2.78;;
793;SDS011;380;48.738;9.214;2022-08-21T09:33:27;4.57;;;2.72;;
793;SDS011;380;48.738;9.214;2022-08-21T09:35:54;3.20;;;2.20;;
793;SDS011;380;48.738;9.214;2022-08-21T09:38:29;4.25;;;3.03;;
793;SDS011;380;48.738;9.214;2022-08-21T09:41:03;4.13;;;3.22;;
793;SDS011;380;48.738;9.214;2022-08-21T09:43:30;5.57;;;3.05;;
793;SDS011;380;48.738;9.214;2022-08-21T09:48:29;4.38;;;3.17;;
793;SDS011;380;48.738;9.214;2022-08-21T09:51:05;9.75;;;3.45;;
793;SDS011;380;48.738;9.214;2022-08-21T09:53:31;5.28;;;3.78;;
793;SDS011;380;48.738;9.214;2022-08-21T09:56:04;6.28;;;2.67;;
793;SDS011;380;48.738;9.214;2022-08-21T09:58:50;6.88;;;2.55;;
793;SDS011;380;48.738;9.214;2022-08-21T10:01:17;5.93;;;3.50;;
793;SDS011;380;48.738;9.214;2022-08-21T10:03:44;5.50;;;2.78;;
793;SDS011;380;48.738;9.214;2022-08-21T10:06:19;4.00;;;2.72;;
793;SDS011;380;48.738;9.214;2022-08-21T10:08:46;5.25;;;3.15;;
793;SDS011;380;48.738;9.214;2022-08-21T10:11:13;5.53;;;2.78;;
793;SDS011;380;48.738;9.214;2022-08-21T10:18:56;3.63;;;2.70;;
793;SDS011;380;48.738;9.214;2022-08-21T10:21:29;5.20;;;2.60;;
793;SDS011;380;48.738;9.214;2022-08-21T10:24:01;4.55;;;3.20;;
793;SDS011;380;48.738;9.214;2022-08-21T10:26:42;5.15;;;2.13;;
793;SDS011;380;48.738;9.214;2022-08-21T10:29:28;5.28;;;3.20;;
793;SDS011;380;48.738;9.214;2022-08-21T10:34:52;3.95;;;2.03;;
793;SDS011;380;48.738;9.214;2022-08-21T10:37:27;4.47;;;2.90;;
793;SDS011;380;48.738;9.214;2022-08-21T10:41:01;6.00;;;2.80;;
793;SDS011;380;48.738;9.214;2022-08-21T10:43:04;4.45;;;2.85;;
793;SDS011;380;48.738;9.214;2022-08-21T10:48:58;4.07;;;2.70;;
793;SDS011;380;48.738;9.214;2022-08-21T10:51:28;3.20;;;2.22;;
793;SDS011;380;48.738;9.214;2022-08-21T10:56:26;4.15;;;2.97;;
793;SDS011;380;48.738;9.214;2022-08-21T11:01:27;5.35;;;2.83;;
793;SDS011;380;48.738;9.214;2022-08-21T11:04:08;4.07;;;2.45;;
793;SDS011;380;48.738;9.214;2022-08-21T11:06:35;6.10;;;3.38;;
793;SDS011;380;48.738;9.214;2022-08-21T11:09:12;4.93;;;2.72;;
793;SDS011;380;48.738;9.214;2022-08-21T11:11:41;5.22;;;2.78;;
793;SDS011;380;48.738;9.214;2022-08-21T11:14:17;3.50;;;2.08;;
793;SDS011;380;48.738;9.214;2022-08-21T11:16:53;4.57;;;2.63;;
793;SDS011;380;48.738;9.214;2022-08-21T11:19:28;6.57;;;2.63;;
793;SDS011;380;48.738;9.214;2022-08-21T11:22:06;3.65;;;2.67;;
793;SDS011;380;48.738;9.214;2022-08-21T11:27:36;6.05;;;2.40;;
793;SDS011;380;48.738;9.214;2022-08-21T11:30:05;5.03;;;2.97;;
793;SDS011;380;48.738;9.214;2022-08-21T11:32:53;5.03;;;2.30;;
793;SDS011;380;48.738;9.214;2022-08-21T11:43:41;2.97;;;2.22;;
793;SDS011;380;48.738;9.214;2022-08-21T11:46:17;2.67;;;2.00;;
793;SDS011;380;48.738;9.214;2022-08-21T11:51:51;4.28;;;2.10;;
793;SDS011;380;48.738;9.214;2022-08-21T11:54:31;3.97;;;2.75;;
793;SDS011;380;48.738;9.214;2022-08-21T11:57:01;4.53;;;2.33;;
793;SDS011;380;48.738;9.214;2022-08-21T11:59:51;3.47;;;2.20;;
793;SDS011;380;48.738;9.214;2022-08-21T12:02:19;3.15;;;2.08;;
793;SDS011;380;48.738;9.214;2022-08-21T12:04:48;4.63;;;1.85;;
793;SDS011;380;48.738;9.214;2022-08-21T12:07:34;3.25;;;2.42;;
793;SDS011;380;48.738;9.214;2022-08-21T12:10:01;7.30;;;2.13;;
793;SDS011;380;48.738;9.214;2022-08-21T12:12:35;3.60;;;2.67;;
793;SDS011;380;48.738;9.214;2022-08-21T12:18:00;3.78;;;2.28;;
793;SDS011;380;48.738;9.214;2022-08-21T12:23:04;5.15;;;2.72;;
793;SDS011;380;48.738;9.214;2022-08-21T12:28:26;3.47;;;1.95;;
793;SDS011;380;48.738;9.214;2022-08-21T12:30:52;3.60;;;1.77;;
793;SDS011;380;48.738;9.214;2022-08-21T12:35:47;3.97;;;2.35;;
793;SDS011;380;48.738;9.214;2022-08-21T12:40:57;2.88;;;2.13;;
793;SDS011;380;48.738;9.214;2022-08-21T12:43:28;6.35;;;2.72;;
793;SDS011;380;48.738;9.214;2022-08-21T12:45:55;4.95;;;2.72;;
793;SDS011;380;48.738;9.214;2022-08-21T12:53:40;5.35;;;2.05;;
793;SDS011;380;48.738;9.214;2022-08-21T12:56:12;4.53;;;1.95;;
793;SDS011;380;48.738;9.214;2022-08-21T12:58:55;4.35;;;2.33;;
793;SDS011;380;48.738;9.214;2022-08-21T13:01:26;3.58;;;1.90;;
793;SDS011;380;48.738;9.214;2022-08-21T13:03:54;5.32;;;2.33;;
793;SDS011;380;48.738;9.214;2022-08-21T13:06:21;4.88;;;2.35;;
793;SDS011;380;48.738;9.214;2022-08-21T13:08:48;4.05;;;2.15;;
793;SDS011;380;48.738;9.214;2022-08-21T13:11:16;4.82;;;2.65;;
793;SDS011;380;48.738;9.214;2022-08-21T13:13:48;4.00;;;2.08;;
793;SDS011;380;48.738;9.214;2022-08-21T13:16:14;4.47;;;2.10;;
793;SDS011;380;48.738;9.214;2022-08-21T13:21:18;3.17;;;2.13;;
793;SDS011;380;48.738;9.214;2022-08-21T13:23:45;8.27;;;3.15;;
793;SDS011;380;48.738;9.214;2022-08-21T13:26:13;5.68;;;1.80;;
793;SDS011;380;48.738;9.214;2022-08-21T13:28:39;3.45;;;2.05;;
793;SDS011;380;48.738;9.214;2022-08-21T13:31:06;3.00;;;1.83;;
793;SDS011;380;48.738;9.214;2022-08-21T13:33:35;3.43;;;2.30;;
793;SDS011;380;48.738;9.214;2022-08-21T13:36:03;3.30;;;2.30;;
793;SDS011;380;48.738;9.214;2022-08-21T13:38:31;5.82;;;2.83;;
793;SDS011;380;48.738;9.214;2022-08-21T13:41:02;2.90;;;1.98;;
793;SDS011;380;48.738;9.214;2022-08-21T13:43:31;3.80;;;2.67;;
793;SDS011;380;48.738;9.214;2022-08-21T13:45:57;4.22;;;2.25;;
793;SDS011;380;48.738;9.214;2022-08-21T13:48:25;5.57;;;2.47;;
793;SDS011;380;48.738;9.214;2022-08-21T13:50:51;3.88;;;2.55;;
793;SDS011;380;48.738;9.214;2022-08-21T13:53:34;4.03;;;2.33;;
793;SDS011;380;48.738;9.214;2022-08-21T13:56:01;3.35;;;2.50;;
793;SDS011;380;48.738;9.214;2022-08-21T13:58:33;4.60;;;2.10;;
793;SDS011;380;48.738;9.214;2022-08-21T14:00:59;4.32;;;2.33;;
793;SDS011;380;48.738;9.214;2022-08-21T14:03:36;4.68;;;2.47;;
793;SDS011;380;48.738;9.214;2022-08-21T14:06:15;4.70;;;2.67;;
793;SDS011;380;48.738;9.214;2022-08-21T14:08:42;3.25;;;2.00;;
793;SDS011;380;48.738;9.214;2022-08-21T14:11:13;3.22;;;2.40;;
793;SDS011;380;48.738;9.214;2022-08-21T14:13:40;3.45;;;1.88;;
793;SDS011;380;48.738;9.214;2022-08-21T14:16:12;4.28;;;2.40;;
793;SDS011;380;48.738;9.214;2022-08-21T14:18:49;5.55;;;2.50;;
793;SDS011;380;48.738;9.214;2022-08-21T14:21:23;4.47;;;2.17;;
793;SDS011;380;48.738;9.214;2022-08-21T14:26:32;2.95;;;2.30;;
793;SDS011;380;48.738;9.214;2022-08-21T14:28:59;4.88;;;2.63;;
793;SDS011;380;48.738;9.214;2022-08-21T14:31:28;8.23;;;2.33;;
793;SDS011;380;48.738;9.214;2022-08-21T14:33:54;4.07;;;2.72;;
793;SDS011;380;48.738;9.214;2022-08-21T14:36:20;3.00;;;2.30;;
793;SDS011;380;48.738;9.214;2022-08-21T14:38:46;4.03;;;2.00;;
793;SDS011;380;48.738;9.214;2022-08-21T14:41:19;5.07;;;2.42;;
793;SDS011;380;48.738;9.214;2022-08-21T14:43:47;4.38;;;2.00;;
793;SDS011;380;48.738;9.214;2022-08-21T14:46:16;5.97;;;2.58;;
793;SDS011;380;48.738;9.214;2022-08-21T14:51:11;7.88;;;2.95;;
793;SDS011;380;48.738;9.214;2022-08-21T14:53:37;4.30;;;2.70;;
793;SDS011;380;48.738;9.214;2022-08-21T14:56:03;5.22;;;2.92;;
793;SDS011;380;48.738;9.214;2022-08-21T14:58:29;4.55;;;2.22;;
793;SDS011;380;48.738;9.214;2022-08-21T15:00:55;3.75;;;2.38;;
793;SDS011;380;48.738;9.214;2022-08-21T15:03:22;4.97;;;2.05;;
793;SDS011;380;48.738;9.214;2022-08-21T15:05:49;4.50;;;2.20;;
793;SDS011;380;48.738;9.214;2022-08-21T15:08:15;3.80;;;2.28;;
793;SDS011;380;48.738;9.214;2022-08-21T15:10:41;2.60;;;1.92;;
793;SDS011;380;48.738;9.214;2022-08-21T15:13:07;3.28;;;2.30;;
793;SDS011;380;48.738;9.214;2022-08-21T15:15:34;4.78;;;2.08;;
793;SDS011;380;48.738;9.214;2022-08-21T15:18:01;3.60;;;2.47;;
793;SDS011;380;48.738;9.214;2022-08-21T15:20:27;4.60;;;2.83;;
793;SDS011;380;48.738;9.214;2022-08-21T15:22:53;3.17;;;1.98;;
793;SDS011;380;48.738;9.214;2022-08-21T15:25:19;3.70;;;2.15;;
793;SDS011;380;48.738;9.214;2022-08-21T15:27:45;4.65;;;2.45;;
793;SDS011;380;48.738;9.214;2022-08-21T15:30:11;3.40;;;2.13;;
793;SDS011;380;48.738;9.214;2022-08-21T15:32:37;3.63;;;2.20;;
793;SDS011;380;48.738;9.214;2022-08-21T15:35:04;3.70;;;1.95;;
793;SDS011;380;48.738;9.214;2022-08-21T15:37:30;6.55;;;2.00;;
793;SDS011;380;48.738;9.214;2022-08-21T15:39:57;2.95;;;1.88;;
793;SDS011;380;48.738;9.214;2022-08-21T15:42:23;4.72;;;2.25;;
793;SDS011;380;48.738;9.214;2022-08-21T15:44:49;3.92;;;2.35;;
793;SDS011;380;48.738;9.214;2022-08-21T15:47:19;4.25;;;2.25;;
793;SDS011;380;48.738;9.214;2022-08-21T15:49:45;3.08;;;1.90;;
793;SDS011;380;48.738;9.214;2022-08-21T15:52:15;3.58;;;2.00;;
793;SDS011;380;48.738;9.214;2022-08-21T15:54:41;5.55;;;1.98;;
793;SDS011;380;48.738;9.214;2022-08-21T15:57:08;5.43;;;2.53;;
793;SDS011;380;48.738;9.214;2022-08-21T15:59:39;4.88;;;2.13;;
793;SDS011;380;48.738;9.214;2022-08-21T16:02:08;3.72;;;2.15;;
793;SDS011;380;48.738;9.214;2022-08-21T16:04:38;2.90;;;2.13;;
793;SDS011;380;48.738;9.214;2022-08-21T16:07:03;4.22;;;2.20;;
793;SDS011;380;48.738;9.214;2022-08-21T16:09:29;4.38;;;2.17;;
793;SDS011;380;48.738;9.214;2022-08-21T16:11:55;4.15;;;2.58;;
793;SDS011;380;48.738;9.214;2022-08-21T16:14:21;3.72;;;2.13;;
793;SDS011;380;48.738;9.214;2022-08-21T16:16:47;3.00;;;1.98;;
793;SDS011;380;48.738;9.214;2022-08-21T16:19:13;4.20;;;2.47;;
793;SDS011;380;48.738;9.214;2022-08-21T16:21:40;3.42;;;1.92;;
793;SDS011;380;48.738;9.214;2022-08-21T16:24:06;3.63;;;2.45;;
793;SDS011;380;48.738;9.214;2022-08-21T16:26:32;3.10;;;2.15;;
793;SDS011;380;48.738;9.214;2022-08-21T16:28:58;3.13;;;1.90;;
793;SDS011;380;48.738;9.214;2022-08-21T16:31:24;5.40;;;2.25;;
793;SDS011;380;48.738;9.214;2022-08-21T16:33:51;3.83;;;2.40;;
793;SDS011;380;48.738;9.214;2022-08-21T16:36:18;4.07;;;2.42;;
793;SDS011;380;48.738;9.214;2022-08-21T16:38:44;4.22;;;2.58;;
793;SDS011;380;48.738;9.214;2022-08-21T16:41:13;5.88;;;2.38;;
793;SDS011;380;48.738;9.214;2022-08-21T16:43:39;3.38;;;2.20;;
793;SDS011;380;48.738;9.214;2022-08-21T16:46:06;3.90;;;2.17;;
793;SDS011;380;48.738;9.214;2022-08-21T16:48:33;3.85;;;2.00;;
793;SDS011;380;48.738;9.214;2022-08-21T16:50:59;5.47;;;1.98;;
793;SDS011;380;48.738;9.214;2022-08-21T16:53:25;3.53;;;2.10;;
793;SDS011;380;48.738;9.214;2022-08-21T16:55:51;2.83;;;2.20;;
793;SDS011;380;48.738;9.214;2022-08-21T16:58:25;3.90;;;1.80;;
793;SDS011;380;48.738;9.214;2022-08-21T17:00:51;3.88;;;2.33;;
793;SDS011;380;48.738;9.214;2022-08-21T17:03:18;5.18;;;2.53;;
793;SDS011;380;48.738;9.214;2022-08-21T17:05:46;4.50;;;2.90;;
793;SDS011;380;48.738;9.214;2022-08-21T17:08:12;4.35;;;2.40;;
793;SDS011;380;48.738;9.214;2022-08-21T17:10:39;2.60;;;1.70;;
793;SDS011;380;48.738;9.214;2022-08-21T17:13:07;4.82;;;2.35;;
793;SDS011;380;48.738;9.214;2022-08-21T17:15:36;4.88;;;2.55;;
793;SDS011;380;48.738;9.214;2022-08-21T17:18:03;3.58;;;2.20;;
793;SDS011;380;48.738;9.214;2022-08-21T17:20:31;4.45;;;2.38;;
793;SDS011;380;48.738;9.214;2022-08-21T17:22:57;3.58;;;1.88;;
793;SDS011;380;48.738;9.214;2022-08-21T17:25:24;3.83;;;2.03;;
793;SDS011;380;48.738;9.214;2022-08-21T17:27:50;5.13;;;2.10;;
793;SDS011;380;48.738;9.214;2022-08-21T17:30:18;4.13;;;2.50;;
793;SDS011;380;48.738;9.214;2022-08-21T17:32:44;3.90;;;2.38;;
793;SDS011;380;48.738;9.214;2022-08-21T17:35:11;4.18;;;2.30;;
793;SDS011;380;48.738;9.214;2022-08-21T17:37:37;2.88;;;1.83;;
793;SDS011;380;48.738;9.214;2022-08-21T17:40:04;5.03;;;3.00;;
793;SDS011;380;48.738;9.214;2022-08-21T17:42:31;4.10;;;1.65;;
793;SDS011;380;48.738;9.214;2022-08-21T17:44:57;2.67;;;1.83;;
793;SDS011;380;48.738;9.214;2022-08-21T17:47:23;2.67;;;1.92;;
793;SDS011;380;48.738;9.214;2022-08-21T17:49:50;2.92;;;1.88;;
793;SDS011;380;48.738;9.214;2022-08-21T17:52:16;3.20;;;2.33;;
793;SDS011;380;48.738;9.214;2022-08-21T17:54:42;3.15;;;1.95;;
793;SDS011;380;48.738;9.214;2022-08-21T17:57:10;3.67;;;2.20;;
793;SDS011;380;48.738;9.214;2022-08-21T17:59:39;3.80;;;2.22;;
793;SDS011;380;48.738;9.214;2022-08-21T18:02:05;3.58;;;2.53;;
793;SDS011;380;48.738;9.214;2022-08-21T18:04:31;5.53;;;2.10;;
793;SDS011;380;48.738;9.214;2022-08-21T18:06:57;3.60;;;2.13;;
793;SDS011;380;48.738;9.214;2022-08-21T18:09:23;3.38;;;1.65;;
793;SDS011;380;48.738;9.214;2022-08-21T18:11:53;3.13;;;1.58;;
793;SDS011;380;48.738;9.214;2022-08-21T18:14:21;3.42;;;2.28;;
793;SDS011;380;48.738;9.214;2022-08-21T18:16:48;3.67;;;2.17;;
793;SDS011;380;48.738;9.214;2022-08-21T18:19:14;7.32;;;2.35;;
793;SDS011;380;48.738;9.214;2022-08-21T18:21:45;3.10;;;1.98;;
793;SDS011;380;48.738;9.214;2022-08-21T18:24:11;4.13;;;2.20;;
793;SDS011;380;48.738;9.214;2022-08-21T18:26:37;3.35;;;1.77;;
793;SDS011;380;48.738;9.214;2022-08-21T18:29:06;4.18;;;1.88;;
793;SDS011;380;48.738;9.214;2022-08-21T18:31:32;3.25;;;2.03;;
793;SDS011;380;48.738;9.214;2022-08-21T18:34:00;3.22;;;1.75;;
793;SDS011;380;48.738;9.214;2022-08-21T18:36:27;3.70;;;2.53;;
793;SDS011;380;48.738;9.214;2022-08-21T18:38:53;3.25;;;1.98;;
793;SDS011;380;48.738;9.214;2022-08-21T18:41:20;4.20;;;2.05;;
793;SDS011;380;48.738;9.214;2022-08-21T18:43:46;7.00;;;2.35;;
793;SDS011;380;48.738;9.214;2022-08-21T18:46:12;3.55;;;2.38;;
793;SDS011;380;48.738;9.214;2022-08-21T18:48:40;3.55;;;2.17;;
793;SDS011;380;48.738;9.214;2022-08-21T18:51:06;4.55;;;2.10;;
793;SDS011;380;48.738;9.214;2022-08-21T18:53:32;3.33;;;1.83;;
793;SDS011;380;48.738;9.214;2022-08-21T18:55:58;5.63;;;2.28;;
793;SDS011;380;48.738;9.214;2022-08-21T18:58:24;4.13;;;1.80;;
793;SDS011;380;48.738;9.214;2022-08-21T19:00:51;4.53;;;2.20;;
793;SDS011;380;48.738;9.214;2022-08-21T19:03:19;2.95;;;1.75;;
793;SDS011;380;48.738;9.214;2022-08-21T19:05:46;2.92;;;1.80;;
793;SDS011;380;48.738;9.214;2022-08-21T19:08:13;3.50;;;2.38;;
793;SDS011;380;48.738;9.214;2022-08-21T19:10:40;2.50;;;2.13;;
793;SDS011;380;48.738;9.214;2022-08-21T19:13:07;2.80;;;1.90;;
793;SDS011;380;48.738;9.214;2022-08-21T19:15:34;4.20;;;2.25;;
793;SDS011;380;48.738;9.214;2022-08-21T19:18:01;2.47;;;1.50;;
793;SDS011;380;48.738;9.214;2022-08-21T19:20:29;3.13;;;2.20;;
793;SDS011;380;48.738;9.214;2022-08-21T19:22:55;3.80;;;2.67;;
793;SDS011;380;48.738;9.214;2022-08-21T19:25:21;3.28;;;2.00;;
793;SDS011;380;48.738;9.214;2022-08-21T19:27:48;3.45;;;1.92;;
793;SDS011;380;48.738;9.214;2022-08-21T19:30:14;4.72;;;2.55;;
793;SDS011;380;48.738;9.214;2022-08-21T19:32:41;3.30;;;1.83;;
793;SDS011;380;48.738;9.214;2022-08-21T19:35:09;2.72;;;2.10;;
793;SDS011;380;48.738;9.214;2022-08-21T19:37:35;3.40;;;2.42;;
793;SDS011;380;48.738;9.214;2022-08-21T19:40:02;3.67;;;2.20;;
793;SDS011;380;48.738;9.214;2022-08-21T19:42:28;2.80;;;1.88;;
793;SDS011;380;48.738;9.214;2022-08-21T19:44:54;4.15;;;2.78;;
793;SDS011;380;48.738;9.214;2022-08-21T19:47:20;5.22;;;2.90;;
793;SDS011;380;48.738;9.214;2022-08-21T19:49:51;5.55;;;2.47;;
793;SDS011;380;48.738;9.214;2022-08-21T19:52:18;4.53;;;2.25;;
793;SDS011;380;48.738;9.214;2022-08-21T19:54:45;3.88;;;2.67;;
793;SDS011;380;48.738;9.214;2022-08-21T19:57:11;5.93;;;2.42;;
793;SDS011;380;48.738;9.214;2022-08-21T19:59:38;6.15;;;2.65;;
793;SDS011;380;48.738;9.214;2022-08-21T20:02:05;5.05;;;1.90;;
793;SDS011;380;48.738;9.214;2022-08-21T20:04:31;3.85;;;2.42;;
793;SDS011;380;48.738;9.214;2022-08-21T20:06:57;4.03;;;2.30;;
793;SDS011;380;48.738;9.214;2022-08-21T20:09:23;4.90;;;2.45;;
793;SDS011;380;48.738;9.214;2022-08-21T20:11:53;4.68;;;2.55;;
793;SDS011;380;48.738;9.214;2022-08-21T20:14:21;4.18;;;2.45;;
793;SDS011;380;48.738;9.214;2022-08-21T20:16:47;3.65;;;2.30;;
793;SDS011;380;48.738;9.214;2022-08-21T20:19:14;3.40;;;2.28;;
793;SDS011;380;48.738;9.214;2022-08-21T20:21:40;6.32;;;2.45;;
793;SDS011;380;48.738;9.214;2022-08-21T20:24:07;4.15;;;2.50;;
793;SDS011;380;48.738;9.214;2022-08-21T20:26:34;4.97;;;2.30;;
793;SDS011;380;48.738;9.214;2022-08-21T20:29:00;4.10;;;2.45;;
793;SDS011;380;48.738;9.214;2022-08-21T20:31:27;4.28;;;2.80;;
793;SDS011;380;48.738;9.214;2022-08-21T20:33:54;3.22;;;2.00;;
793;SDS011;380;48.738;9.214;2022-08-21T20:36:20;5.95;;;2.42;;
793;SDS011;380;48.738;9.214;2022-08-21T20:38:46;4.60;;;2.90;;
793;SDS011;380;48.738;9.214;2022-08-21T20:41:14;4.20;;;1.95;;
793;SDS011;380;48.738;9.214;2022-08-21T20:43:40;3.25;;;2.47;;
793;SDS011;380;48.738;9.214;2022-08-21T20:46:07;4.75;;;2.75;;
793;SDS011;380;48.738;9.214;2022-08-21T20:48:35;4.00;;;2.28;;
793;SDS011;380;48.738;9.214;2022-08-21T20:51:09;4.05;;;2.75;;
793;SDS011;380;48.738;9.214;2022-08-21T20:59:18;5.20;;;2.65;;
793;SDS011;380;48.738;9.214;2022-08-21T21:01:47;4.13;;;1.95;;
793;SDS011;380;48.738;9.214;2022-08-21T21:04:19;2.83;;;1.88;;
793;SDS011;380;48.738;9.214;2022-08-21T21:06:48;9.07;;;2.70;;
793;SDS011;380;48.738;9.214;2022-08-21T21:09:17;4.72;;;2.20;;
793;SDS011;380;48.738;9.214;2022-08-21T21:11:55;2.85;;;2.05;;
793;SDS011;380;48.738;9.214;2022-08-21T21:17:12;2.83;;;2.10;;
793;SDS011;380;48.738;9.214;2022-08-21T21:19:44;7.50;;;2.60;;
793;SDS011;380;48.738;9.214;2022-08-21T21:27:16;5.03;;;2.65;;
793;SDS011;380;48.738;9.214;2022-08-21T21:29:47;5.13;;;2.35;;
793;SDS011;380;48.738;9.214;2022-08-21T21:32:14;4.10;;;1.88;;
793;SDS011;380;48.738;9.214;2022-08-21T21:34:42;2.85;;;1.88;;
793;SDS011;380;48.738;9.214;2022-08-21T21:45:28;5.75;;;2.75;;
793;SDS011;380;48.738;9.214;2022-08-21T21:48:00;6.22;;;2.60;;
793;SDS011;380;48.738;9.214;2022-08-21T21:58:28;4.55;;;2.47;;
793;SDS011;380;48.738;9.214;2022-08-21T22:03:44;4.03;;;2.35;;
793;SDS011;380;48.738;9.214;2022-08-21T22:06:48;3.05;;;1.88;;
793;SDS011;380;48.738;9.214;2022-08-21T22:11:40;4.35;;;2.38;;
793;SDS011;380;48.738;9.214;2022-08-21T22:14:09;4.10;;;2.60;;
793;SDS011;380;48.738;9.214;2022-08-21T22:16:35;5.57;;;2.35;;
793;SDS011;380;48.738;9.214;2022-08-21T22:21:48;4.53;;;2.28;;
793;SDS011;380;48.738;9.214;2022-08-21T22:24:24;3.90;;;2.58;;
793;SDS011;380;48.738;9.214;2022-08-21T22:26:52;4.95;;;2.38;;
793;SDS011;380;48.738;9.214;2022-08-21T22:29:21;3.22;;;2.63;;
793;SDS011;380;48.738;9.214;2022-08-21T22:32:04;4.03;;;2.33;;
793;SDS011;380;48.738;9.214;2022-08-21T22:34:31;5.10;;;3.03;;
793;SDS011;380;48.738;9.214;2022-08-21T22:36:58;3.67;;;2.72;;
793;SDS011;380;48.738;9.214;2022-08-21T22:39:27;4.78;;;2.38;;
793;SDS011;380;48.738;9.214;2022-08-21T22:41:53;6.00;;;2.72;;
793;SDS011;380;48.738;9.214;2022-08-21T22:44:21;4.32;;;2.55;;
793;SDS011;380;48.738;9.214;2022-08-21T22:46:49;4.40;;;3.15;;
793;SDS011;380;48.738;9.214;2022-08-21T22:49:33;5.07;;;4.05;;
793;SDS011;380;48.738;9.214;2022-08-21T22:52:10;4.38;;;3.28;;
793;SDS011;380;48.738;9.214;2022-08-21T22:54:40;7.82;;;3.67;;
793;SDS011;380;48.738;9.214;2022-08-21T22:57:08;5.65;;;3.65;;
793;SDS011;380;48.738;9.214;2022-08-21T22:59:39;5.68;;;4.10;;
793;SDS011;380;48.738;9.214;2022-08-21T23:04:32;5.03;;;3.90;;
793;SDS011;380;48.738;9.214;2022-08-21T23:07:08;5.28;;;3.88;;
793;SDS011;380;48.738;9.214;2022-08-21T23:09:36;6.65;;;5.38;;
793;SDS011;380;48.738;9.214;2022-08-21T23:12:14;6.40;;;4.70;;
793;SDS011;380;48.738;9.214;2022-08-21T23:14:48;6.20;;;4.82;;
793;SDS011;380;48.738;9.214;2022-08-21T23:17:17;5.13;;;4.47;;
793;SDS011;380;48.738;9.214;2022-08-21T23:22:35;5.28;;;4.20;;
793;SDS011;380;48.738;9.214;2022-08-21T23:25:14;6.82;;;4.32;;
793;SDS011;380;48.738;9.214;2022-08-21T23:30:38;6.43;;;4.93;;
793;SDS011;380;48.738;9.214;2022-08-21T23:33:08;6.40;;;4.57;;
793;SDS011;380;48.738;9.214;2022-08-21T23:35:49;5.93;;;4.22;;
793;SDS011;380;48.738;9.214;2022-08-21T23:41:03;5.40;;;4.25;;
793;SDS011;380;48.738;9.214;2022-08-21T23:43:36;6.50;;;4.88;;
793;SDS011;380;48.738;9.214;2022-08-21T23:46:19;5.35;;;3.63;;
793;SDS011;380;48.738;9.214;2022-08-21T23:48:54;6.45;;;4.97;;
793;SDS011;380;48.738;9.214;2022-08-21T23:51:25;6.60;;;4.35;;
793;SDS011;380;48.738;9.214;2022-08-21T23:56:30;5.25;;;3.85;;
793;SDS011;380;48.738;9.214;2022-08-21T23:59:10;8.48;;;4.80;;
